Авиационная погода в Йоэнсуу

Регион: 
Погода METAR: 
EFJO 290120Z AUTO 17012KT 9999 -SHRA OVC009 //////CB 07/07 Q1005
Время наблюдения
2020-10-29T01:20:00Z
Температура C
7.0
Точка росы
7.0
Направление ветра
170
Скорость ветра (узлы)
12
Метео видимость
6.21
Явления погоды
-SHRA
Условия полета
IFR